createdAt,value
2019-03-15T00:00:45.213Z,70.80
2019-03-15T00:03:14.614Z,71.00
2019-03-15T00:05:44.042Z,71.10
2019-03-15T00:08:13.346Z,71.30
2019-03-15T00:10:42.852Z,71.40
2019-03-15T00:13:12.475Z,71.30
2019-03-15T00:15:44.084Z,71.10
2019-03-15T00:18:13.566Z,70.90
2019-03-15T00:20:45.364Z,70.90
2019-03-15T00:23:15.775Z,70.60
2019-03-15T00:25:45.091Z,70.50
2019-03-15T00:28:14.469Z,70.40
2019-03-15T00:30:45.927Z,70.20
2019-03-15T00:33:15.213Z,70.10
2019-03-15T00:35:44.866Z,70.10
2019-03-15T00:38:18.365Z,70.00
2019-03-15T00:40:47.911Z,70.30
2019-03-15T00:43:17.307Z,70.80
2019-03-15T00:45:46.751Z,71.30
2019-03-15T00:48:16.159Z,71.60
2019-03-15T00:50:47.861Z,71.80
2019-03-15T00:53:17.299Z,71.90
2019-03-15T00:55:46.785Z,72.10
2019-03-15T00:58:16.172Z,72.10
2019-03-15T01:00:45.559Z,72.10
2019-03-15T01:03:15.687Z,72.20
2019-03-15T01:05:45.205Z,71.90
2019-03-15T01:08:25.179Z,71.50
2019-03-15T01:10:54.512Z,70.90
2019-03-15T01:13:26.181Z,70.90
2019-03-15T01:15:57.015Z,70.90
2019-03-15T01:18:26.807Z,70.60
2019-03-15T01:20:56.508Z,70.50
2019-03-15T01:23:25.971Z,70.40
2019-03-15T01:26:15.279Z,70.50
2019-03-15T01:28:44.580Z,70.40
2019-03-15T01:31:37.804Z,70.20
2019-03-15T01:34:07.097Z,70.00
2019-03-15T01:36:36.508Z,69.90
2019-03-15T01:39:06.938Z,69.70
2019-03-15T01:41:36.224Z,69.60
2019-03-15T01:44:05.589Z,69.60
2019-03-15T01:46:35.250Z,69.40
2019-03-15T01:49:09.545Z,69.20
2019-03-15T01:51:38.948Z,69.10
2019-03-15T01:54:08.352Z,69.10
2019-03-15T01:56:39.202Z,68.80
2019-03-15T01:59:08.479Z,68.60
2019-03-15T02:02:31.166Z,68.20
2019-03-15T02:05:00.526Z,68.00
2019-03-15T02:07:29.927Z,68.00
2019-03-15T02:09:59.288Z,68.00
2019-03-15T02:12:28.647Z,67.70
2019-03-15T02:14:57.905Z,67.60
2019-03-15T02:17:27.319Z,67.70
2019-03-15T02:19:56.639Z,67.90
2019-03-15T02:22:25.943Z,67.60
2019-03-15T02:24:55.251Z,67.50
2019-03-15T02:27:24.583Z,67.50
2019-03-15T02:29:53.997Z,67.50
2019-03-15T02:32:23.387Z,67.30
2019-03-15T02:34:53.745Z,67.10
2019-03-15T02:37:23.336Z,66.90
2019-03-15T02:39:52.710Z,66.70
2019-03-15T02:42:22.079Z,66.30
2019-03-15T02:44:51.477Z,65.70
2019-03-15T02:47:21.024Z,65.80
2019-03-15T02:49:50.381Z,65.30
2019-03-15T02:52:19.844Z,65.40
2019-03-15T02:54:49.189Z,65.40
2019-03-15T02:57:18.429Z,65.60
2019-03-15T02:59:47.789Z,65.90
2019-03-15T03:02:17.100Z,65.40
2019-03-15T03:04:46.468Z,65.40
2019-03-15T03:07:15.873Z,65.30
2019-03-15T03:09:45.306Z,65.40
2019-03-15T03:12:14.626Z,65.40
2019-03-15T03:14:43.996Z,65.40
2019-03-15T03:17:13.825Z,65.30
2019-03-15T03:19:43.404Z,65.30
2019-03-15T03:22:12.722Z,65.10
2019-03-15T03:24:42.118Z,65.10
2019-03-15T03:27:11.478Z,65.10
2019-03-15T03:29:40.812Z,64.90
2019-03-15T03:32:10.409Z,65.40
2019-03-15T03:34:40.789Z,64.80
2019-03-15T03:37:12.632Z,64.70
2019-03-15T03:39:42.062Z,64.50
2019-03-15T03:42:11.551Z,64.20
2019-03-15T03:44:40.887Z,64.00
2019-03-15T03:47:10.316Z,63.90
2019-03-15T03:49:39.617Z,64.00
2019-03-15T03:52:08.994Z,63.60
2019-03-15T03:54:38.346Z,63.50
2019-03-15T03:57:07.683Z,63.60
2019-03-15T03:59:37.053Z,63.50
2019-03-15T04:02:06.475Z,63.20
2019-03-15T04:04:43.595Z,63.20
2019-03-15T04:07:13.127Z,63.30
2019-03-15T04:09:44.859Z,63.10
2019-03-15T04:12:14.314Z,62.90
2019-03-15T04:14:44.021Z,62.90
2019-03-15T04:17:16.039Z,62.80
2019-03-15T04:19:45.456Z,62.80
2019-03-15T04:22:14.839Z,62.70
2019-03-15T04:24:44.315Z,62.60
2019-03-15T04:27:13.781Z,62.70
2019-03-15T04:29:43.233Z,62.60
2019-03-15T04:32:12.600Z,62.50
2019-03-15T04:34:41.988Z,62.40
2019-03-15T04:37:11.341Z,62.30
2019-03-15T04:39:40.713Z,62.30
2019-03-15T04:42:10.109Z,62.00
2019-03-15T04:44:39.388Z,61.90
2019-03-15T04:47:08.746Z,61.90
2019-03-15T04:49:38.191Z,61.90
2019-03-15T04:52:07.554Z,61.90
2019-03-15T04:54:37.025Z,62.00
2019-03-15T04:57:07.430Z,61.90
2019-03-15T04:59:36.758Z,61.70
2019-03-15T05:02:06.310Z,61.70
2019-03-15T05:04:35.674Z,61.70
2019-03-15T05:07:05.005Z,61.50
2019-03-15T05:09:34.390Z,61.30
2019-03-15T05:12:03.894Z,61.30
2019-03-15T05:14:33.434Z,61.10
2019-03-15T05:17:03.881Z,61.10
2019-03-15T05:19:33.304Z,60.90
2019-03-15T05:22:02.610Z,60.70
2019-03-15T05:24:34.368Z,60.70
2019-03-15T05:27:03.753Z,60.50
2019-03-15T05:29:33.088Z,60.40
2019-03-15T05:32:02.476Z,60.30
2019-03-15T05:34:31.897Z,60.20
2019-03-15T05:37:01.274Z,60.10
2019-03-15T05:39:30.687Z,59.90
2019-03-15T05:41:59.988Z,59.70
2019-03-15T05:44:29.346Z,59.70
2019-03-15T05:46:59.035Z,59.50
2019-03-15T05:49:28.539Z,59.50
2019-03-15T05:51:57.920Z,59.20
2019-03-15T05:54:27.366Z,59.10
2019-03-15T05:56:56.675Z,59.10
2019-03-15T05:59:26.118Z,59.10
2019-03-15T06:01:55.499Z,58.90
2019-03-15T06:04:25.112Z,58.80
2019-03-15T06:06:54.537Z,58.80
2019-03-15T06:09:24.007Z,59.00
2019-03-15T06:11:53.402Z,58.90
2019-03-15T06:14:22.789Z,58.80
2019-03-15T06:16:52.019Z,58.70
2019-03-15T06:19:21.458Z,58.60
2019-03-15T06:21:50.819Z,58.60
2019-03-15T06:24:22.172Z,58.70
2019-03-15T06:26:51.445Z,58.70
2019-03-15T06:29:20.859Z,58.80
2019-03-15T06:31:50.361Z,58.80
2019-03-15T06:34:19.781Z,58.80
2019-03-15T06:36:50.852Z,58.70
2019-03-15T06:39:20.272Z,58.70
2019-03-15T06:41:49.615Z,58.80
2019-03-15T06:44:18.893Z,58.80
2019-03-15T06:47:07.259Z,58.80
2019-03-15T06:49:36.564Z,58.90
2019-03-15T06:52:06.032Z,58.60
2019-03-15T06:54:35.375Z,58.70
2019-03-15T06:57:04.679Z,58.60
2019-03-15T06:59:33.988Z,58.60
2019-03-15T07:02:11.443Z,58.50
2019-03-15T07:04:40.788Z,58.60
2019-03-15T07:07:15.291Z,58.50
2019-03-15T07:09:44.706Z,58.60
2019-03-15T07:12:26.605Z,57.60
2019-03-15T07:15:14.427Z,57.50
2019-03-15T07:17:43.809Z,57.50
2019-03-15T07:20:13.274Z,57.40
2019-03-15T07:22:42.572Z,57.40
2019-03-15T07:25:12.005Z,57.30
2019-03-15T07:27:42.800Z,57.20
2019-03-15T07:30:12.594Z,57.60
2019-03-15T07:32:41.959Z,57.10
2019-03-15T07:35:11.334Z,57.10
2019-03-15T07:37:40.836Z,57.20
2019-03-15T07:40:10.190Z,57.10
2019-03-15T07:42:39.600Z,57.30
2019-03-15T07:45:09.194Z,57.20
2019-03-15T07:47:38.764Z,57.10
2019-03-15T07:50:09.144Z,56.90
2019-03-15T07:52:42.070Z,56.90
2019-03-15T07:55:11.563Z,57.10
2019-03-15T07:57:40.892Z,57.00
2019-03-15T08:00:10.302Z,57.00
2019-03-15T08:02:39.796Z,56.70
2019-03-15T08:05:10.805Z,56.50
2019-03-15T08:07:45.235Z,56.30
2019-03-15T08:10:11.383Z,56.30
2019-03-15T08:12:40.733Z,56.30
2019-03-15T08:15:10.384Z,56.10
2019-03-15T08:17:40.654Z,56.30
2019-03-15T08:20:10.359Z,56.20
2019-03-15T08:22:39.696Z,56.10
2019-03-15T08:25:09.744Z,55.90
2019-03-15T08:27:49.551Z,55.70
2019-03-15T08:30:18.937Z,55.80
2019-03-15T08:32:51.395Z,55.60
2019-03-15T08:35:24.216Z,55.70
2019-03-15T08:37:51.940Z,55.80
2019-03-15T08:40:21.423Z,55.90
2019-03-15T08:42:50.864Z,55.80
2019-03-15T08:45:21.392Z,55.40
2019-03-15T08:47:50.685Z,55.20
2019-03-15T08:50:20.114Z,55.20
2019-03-15T08:52:49.514Z,55.00
2019-03-15T08:55:18.871Z,54.90
2019-03-15T08:57:48.173Z,54.80
2019-03-15T09:00:17.554Z,54.70
2019-03-15T09:02:49.665Z,54.90
2019-03-15T09:05:19.208Z,54.40
2019-03-15T09:07:48.754Z,54.40
2019-03-15T09:10:23.312Z,54.50
2019-03-15T09:12:49.103Z,54.40
2019-03-15T09:15:18.455Z,53.80
2019-03-15T09:17:47.845Z,54.00
2019-03-15T09:20:17.221Z,54.40
2019-03-15T09:22:46.714Z,54.40
2019-03-15T09:25:19.953Z,54.00
2019-03-15T09:27:47.204Z,53.70
2019-03-15T09:30:24.536Z,53.90
2019-03-15T09:32:47.822Z,53.80
2019-03-15T09:35:17.222Z,53.70
2019-03-15T09:37:47.642Z,53.70
2019-03-15T09:40:18.237Z,53.20
2019-03-15T09:42:50.910Z,53.20
2019-03-15T09:45:20.218Z,53.10
2019-03-15T09:47:49.528Z,52.90
2019-03-15T09:50:34.226Z,52.60
2019-03-15T09:52:57.978Z,52.70
2019-03-15T09:55:48.428Z,52.30
2019-03-15T09:58:17.812Z,52.20
2019-03-15T10:00:48.432Z,52.20
2019-03-15T10:03:22.388Z,52.30
2019-03-15T10:05:48.830Z,52.40
2019-03-15T10:08:32.720Z,52.50
2019-03-15T10:11:03.113Z,52.40
2019-03-15T10:13:33.499Z,52.30
2019-03-15T10:16:09.185Z,52.00
2019-03-15T10:18:38.539Z,52.00
2019-03-15T10:21:13.843Z,52.00
2019-03-15T10:23:43.211Z,51.90
2019-03-15T10:26:15.047Z,51.50
2019-03-15T10:28:56.659Z,51.30
2019-03-15T10:31:26.821Z,50.90
2019-03-15T10:33:58.587Z,51.00
2019-03-15T10:36:28.245Z,50.70
2019-03-15T10:38:57.909Z,50.90
2019-03-15T10:41:27.645Z,50.30
2019-03-15T10:43:57.451Z,50.40
2019-03-15T10:46:29.219Z,50.30
2019-03-15T10:48:58.928Z,50.20
2019-03-15T10:51:29.558Z,50.20
2019-03-15T10:54:00.558Z,50.00
2019-03-15T10:56:30.221Z,49.50
2019-03-15T10:58:59.784Z,49.20
2019-03-15T11:01:29.363Z,49.10
2019-03-15T11:03:58.907Z,48.90
2019-03-15T11:06:28.708Z,48.90
2019-03-15T11:09:08.596Z,49.10
2019-03-15T11:11:38.311Z,49.00
2019-03-15T11:14:07.852Z,48.80
2019-03-15T11:16:37.336Z,48.70
2019-03-15T11:19:07.828Z,48.70
2019-03-15T11:21:39.467Z,48.80
2019-03-15T11:24:17.134Z,48.80
2019-03-15T11:26:46.777Z,48.60
2019-03-15T11:29:16.424Z,48.90
2019-03-15T11:31:47.063Z,48.80
2019-03-15T11:34:16.574Z,48.80
2019-03-15T11:36:57.805Z,48.70
2019-03-15T11:39:18.328Z,49.00
2019-03-15T11:41:52.100Z,49.30
2019-03-15T11:44:21.793Z,49.10
2019-03-15T11:46:51.338Z,48.50
2019-03-15T11:49:22.976Z,48.50
2019-03-15T11:51:54.767Z,48.30
2019-03-15T11:54:24.509Z,47.90
2019-03-15T11:56:59.369Z,48.20
2019-03-15T11:59:28.807Z,48.10
2019-03-15T12:02:04.360Z,48.20
2019-03-15T12:04:32.677Z,48.50
2019-03-15T12:07:02.319Z,48.40
2019-03-15T12:09:32.120Z,48.70
2019-03-15T12:12:01.675Z,49.10
2019-03-15T12:14:40.441Z,49.30
2019-03-15T12:17:06.253Z,49.50
2019-03-15T12:19:38.093Z,49.70
2019-03-15T12:22:19.203Z,49.70
2019-03-15T12:24:49.724Z,49.50
2019-03-15T12:27:19.049Z,49.50
2019-03-15T12:29:49.607Z,49.40
2019-03-15T12:32:20.114Z,49.40
2019-03-15T12:34:49.525Z,49.50
2019-03-15T12:37:18.847Z,49.80
2019-03-15T12:39:48.349Z,49.70
2019-03-15T12:42:42.762Z,49.80
2019-03-15T12:45:12.325Z,49.80
2019-03-15T12:47:41.680Z,49.80
2019-03-15T12:50:13.661Z,50.00
2019-03-15T12:52:48.510Z,50.20
2019-03-15T12:55:15.153Z,50.60
2019-03-15T12:57:44.593Z,50.70
2019-03-15T13:00:15.026Z,50.80
2019-03-15T13:02:45.438Z,50.80
2019-03-15T13:05:20.708Z,51.20
2019-03-15T13:07:51.175Z,51.70
2019-03-15T13:10:21.819Z,52.00
2019-03-15T13:12:51.100Z,52.80
2019-03-15T13:15:20.461Z,52.20
2019-03-15T13:17:58.186Z,52.40
2019-03-15T13:20:28.146Z,52.40
2019-03-15T13:22:57.578Z,52.80
2019-03-15T13:25:27.068Z,52.90
2019-03-15T13:27:57.516Z,53.20
2019-03-15T13:30:27.166Z,53.20
2019-03-15T13:33:19.641Z,53.40
2019-03-15T13:35:41.049Z,53.40
2019-03-15T13:38:16.616Z,53.40
2019-03-15T13:40:54.272Z,53.40
2019-03-15T13:43:23.642Z,53.10
2019-03-15T13:45:57.041Z,53.30
2019-03-15T13:48:26.406Z,53.30
2019-03-15T13:50:55.802Z,53.50
2019-03-15T13:53:25.215Z,53.70
2019-03-15T13:55:54.637Z,53.80
2019-03-15T13:58:28.038Z,54.10
2019-03-15T14:00:58.279Z,54.20
2019-03-15T14:03:27.633Z,54.30
2019-03-15T14:05:57.118Z,54.60
2019-03-15T14:08:26.707Z,54.50
2019-03-15T14:10:56.179Z,54.70
2019-03-15T14:13:26.702Z,54.70
2019-03-15T14:16:04.232Z,54.90
2019-03-15T14:18:33.811Z,55.20
2019-03-15T14:21:13.722Z,55.40
2019-03-15T14:23:52.831Z,55.50
2019-03-15T14:26:23.207Z,55.70
2019-03-15T14:28:52.707Z,55.80
2019-03-15T14:31:25.592Z,55.90
2019-03-15T14:33:53.388Z,56.30
2019-03-15T14:36:24.290Z,56.50
2019-03-15T14:38:54.982Z,56.60
2019-03-15T14:41:26.480Z,56.70
2019-03-15T14:43:57.018Z,56.90
2019-03-15T14:46:32.722Z,56.90
2019-03-15T14:49:02.853Z,57.10
2019-03-15T14:51:35.501Z,57.20
2019-03-15T14:54:06.783Z,57.40
2019-03-15T14:56:44.316Z,57.50
2019-03-15T14:59:13.718Z,57.60
2019-03-15T15:01:51.438Z,57.80
2019-03-15T15:04:20.855Z,57.90
2019-03-15T15:06:53.278Z,58.00
2019-03-15T15:09:22.302Z,58.20
2019-03-15T15:11:52.744Z,58.50
2019-03-15T15:14:22.068Z,58.50
2019-03-15T15:16:51.466Z,58.60
2019-03-15T15:19:20.858Z,58.60
2019-03-15T15:21:53.156Z,58.90
2019-03-15T15:24:26.794Z,59.60
2019-03-15T15:26:56.072Z,59.00
2019-03-15T15:29:25.366Z,59.20
2019-03-15T15:31:56.788Z,59.50
2019-03-15T15:34:26.151Z,59.70
2019-03-15T15:36:55.683Z,60.00
2019-03-15T15:39:25.069Z,60.90
2019-03-15T15:41:58.613Z,60.40
2019-03-15T15:44:28.605Z,60.50
2019-03-15T15:46:58.225Z,60.80
2019-03-15T15:49:30.543Z,60.80
2019-03-15T15:51:59.919Z,60.90
2019-03-15T15:54:29.477Z,61.10
2019-03-15T15:56:58.903Z,61.40
2019-03-15T15:59:28.293Z,61.60
2019-03-15T16:01:57.628Z,61.80
2019-03-15T16:04:27.336Z,61.80
2019-03-15T16:06:57.282Z,61.90
2019-03-15T16:09:27.105Z,61.90
2019-03-15T16:11:56.541Z,61.90
2019-03-15T16:14:25.896Z,62.00
2019-03-15T16:16:56.277Z,61.90
2019-03-15T16:19:30.929Z,62.10
2019-03-15T16:22:02.271Z,62.00
2019-03-15T16:24:32.081Z,61.90
2019-03-15T16:27:04.817Z,61.90
2019-03-15T16:29:34.196Z,62.00
2019-03-15T16:32:06.706Z,62.10
2019-03-15T16:34:38.627Z,62.20
2019-03-15T16:37:10.058Z,62.20
2019-03-15T16:39:39.480Z,62.30
2019-03-15T16:42:08.949Z,62.50
2019-03-15T16:44:38.325Z,62.60
2019-03-15T16:47:07.828Z,62.60
2019-03-15T16:49:37.286Z,62.60
2019-03-15T16:52:06.667Z,62.70
2019-03-15T16:54:37.282Z,62.50
2019-03-15T16:57:12.740Z,62.60
2019-03-15T16:59:42.057Z,62.60
2019-03-15T17:02:11.533Z,62.50
2019-03-15T17:04:41.350Z,62.50
2019-03-15T17:07:11.052Z,63.20
2019-03-15T17:09:40.582Z,62.50
2019-03-15T17:12:11.357Z,62.50
2019-03-15T17:14:40.718Z,62.40
2019-03-15T17:17:10.140Z,62.30
2019-03-15T17:19:40.830Z,62.20
2019-03-15T17:22:10.230Z,62.10
2019-03-15T17:24:39.630Z,62.20
2019-03-15T17:27:10.762Z,62.00
2019-03-15T17:29:40.132Z,62.10
2019-03-15T17:32:16.801Z,62.00
2019-03-15T17:34:46.136Z,62.10
2019-03-15T17:37:15.528Z,62.10
2019-03-15T17:39:51.997Z,62.20
2019-03-15T17:42:21.427Z,62.30
2019-03-15T17:44:52.245Z,62.40
2019-03-15T17:47:21.804Z,62.50
2019-03-15T17:49:51.152Z,63.50
2019-03-15T17:52:20.537Z,63.00
2019-03-15T17:54:50.078Z,63.00
2019-03-15T17:57:21.942Z,63.00
2019-03-15T18:00:13.460Z,63.10
2019-03-15T18:02:43.215Z,63.80
2019-03-15T18:05:12.727Z,63.40
2019-03-15T18:07:42.148Z,63.50
2019-03-15T18:10:11.814Z,63.30
2019-03-15T18:12:41.299Z,63.30
2019-03-15T18:15:11.165Z,64.00
2019-03-15T18:17:40.567Z,63.20
2019-03-15T18:20:10.579Z,63.10
2019-03-15T18:22:45.904Z,63.40
2019-03-15T18:25:15.369Z,64.60
2019-03-15T18:27:44.848Z,65.60
2019-03-15T18:30:14.470Z,66.80
2019-03-15T18:32:44.019Z,67.40
2019-03-15T18:35:13.989Z,67.50
2019-03-15T18:37:43.400Z,68.00
2019-03-15T18:40:14.044Z,69.00
2019-03-15T18:42:43.725Z,69.60
2019-03-15T18:45:13.464Z,69.90
2019-03-15T18:47:43.187Z,70.20
2019-03-15T18:50:17.660Z,70.70
2019-03-15T18:52:47.039Z,70.90
2019-03-15T18:55:19.646Z,71.20
2019-03-15T18:57:49.122Z,71.50
2019-03-15T19:00:20.044Z,71.60
2019-03-15T19:02:49.577Z,72.00
2019-03-15T19:05:18.945Z,72.50
2019-03-15T19:07:48.526Z,72.70
2019-03-15T19:10:17.849Z,73.00
2019-03-15T19:12:53.075Z,73.50
2019-03-15T19:15:22.751Z,74.00
2019-03-15T19:17:52.171Z,74.30
2019-03-15T19:20:22.128Z,74.60
2019-03-15T19:22:51.690Z,75.10
2019-03-15T19:25:21.250Z,75.20
2019-03-15T19:27:51.018Z,75.50
2019-03-15T19:30:20.584Z,75.70
2019-03-15T19:32:51.674Z,76.90
2019-03-15T19:35:21.163Z,77.30
2019-03-15T19:37:50.762Z,76.30
2019-03-15T19:40:20.909Z,76.50
2019-03-15T19:42:50.349Z,76.40
2019-03-15T19:45:19.866Z,76.60
2019-03-15T19:47:49.556Z,76.50
2019-03-15T19:50:18.964Z,76.80
2019-03-15T19:52:48.452Z,76.90
2019-03-15T19:55:21.834Z,76.70
2019-03-15T19:57:51.226Z,76.60
2019-03-15T20:00:20.804Z,76.70
2019-03-15T20:02:50.248Z,76.80
2019-03-15T20:05:21.781Z,76.70
2019-03-15T20:07:51.560Z,79.60
2019-03-15T20:10:20.970Z,81.70
2019-03-15T20:12:50.725Z,82.90
2019-03-15T20:15:20.222Z,81.80
2019-03-15T20:17:49.853Z,81.30
2019-03-15T20:20:20.569Z,77.30
2019-03-15T20:22:50.138Z,74.50
2019-03-15T20:25:19.734Z,74.00
2019-03-15T20:27:52.029Z,74.60
2019-03-15T20:30:26.172Z,75.00
2019-03-15T20:32:52.577Z,75.30
2019-03-15T20:35:22.181Z,75.50
2019-03-15T20:37:52.759Z,75.00
2019-03-15T20:40:38.153Z,74.90
2019-03-15T20:43:07.375Z,74.70
2019-03-15T20:45:50.209Z,74.60
2019-03-15T20:48:19.817Z,74.40
2019-03-15T20:50:49.897Z,74.20
2019-03-15T20:53:19.518Z,74.10
2019-03-15T20:55:50.825Z,73.80
2019-03-15T20:58:22.343Z,73.80
2019-03-15T21:00:52.607Z,73.50
2019-03-15T21:03:27.139Z,73.20
2019-03-15T21:05:59.633Z,73.10
2019-03-15T21:08:32.126Z,73.00
2019-03-15T21:11:01.596Z,73.20
2019-03-15T21:13:33.758Z,73.10
2019-03-15T21:16:02.693Z,72.60
2019-03-15T21:18:33.216Z,71.70
2019-03-15T21:21:03.793Z,71.20
2019-03-15T21:23:34.759Z,70.40
2019-03-15T21:26:06.648Z,67.80
2019-03-15T21:28:36.041Z,66.90
2019-03-15T21:31:10.200Z,66.30
2019-03-15T21:33:44.272Z,65.70
2019-03-15T21:36:24.271Z,65.00
2019-03-15T21:38:55.320Z,64.20
2019-03-15T21:41:24.792Z,64.20
2019-03-15T21:43:59.025Z,63.90
2019-03-15T21:46:32.634Z,63.70
2019-03-15T21:49:04.238Z,63.90
2019-03-15T21:51:34.864Z,64.00
2019-03-15T21:54:23.958Z,63.60
2019-03-15T21:56:53.404Z,63.70
2019-03-15T21:59:22.768Z,63.20
2019-03-15T22:01:52.149Z,61.80
2019-03-15T22:04:21.610Z,61.20
2019-03-15T22:06:50.906Z,60.40
2019-03-15T22:09:20.233Z,60.00
2019-03-15T22:11:49.666Z,59.70
2019-03-15T22:14:19.202Z,59.40
2019-03-15T22:16:48.642Z,59.00
2019-03-15T22:19:17.935Z,58.70
2019-03-15T22:21:47.405Z,58.60
2019-03-15T22:24:16.801Z,58.60
2019-03-15T22:26:46.373Z,58.70
2019-03-15T22:29:15.791Z,58.60
2019-03-15T22:31:45.299Z,57.30
2019-03-15T22:34:14.703Z,56.80
2019-03-15T22:36:43.995Z,56.40
2019-03-15T22:39:13.385Z,55.90
2019-03-15T22:41:43.291Z,53.50
2019-03-15T22:44:12.791Z,52.90
2019-03-15T22:46:42.189Z,52.40
2019-03-15T22:49:11.554Z,52.20
2019-03-15T22:51:41.041Z,52.50
2019-03-15T22:54:10.379Z,52.30
2019-03-15T22:56:39.724Z,53.70
2019-03-15T22:59:09.075Z,54.30
2019-03-15T23:01:38.428Z,54.20
2019-03-15T23:04:07.832Z,53.90
2019-03-15T23:06:37.246Z,53.80
2019-03-15T23:09:07.881Z,53.70
2019-03-15T23:11:37.174Z,53.70
2019-03-15T23:14:06.466Z,53.80
2019-03-15T23:16:35.842Z,53.90
2019-03-15T23:19:05.146Z,53.10
2019-03-15T23:21:34.551Z,53.00
2019-03-15T23:24:03.891Z,53.10
2019-03-15T23:26:33.472Z,52.80
2019-03-15T23:29:02.755Z,52.90
2019-03-15T23:31:42.883Z,52.60
2019-03-15T23:34:03.096Z,52.80
2019-03-15T23:36:32.447Z,52.80
2019-03-15T23:39:01.781Z,52.90
2019-03-15T23:41:31.203Z,53.70
2019-03-15T23:44:00.506Z,53.40
2019-03-15T23:46:29.828Z,53.50
2019-03-15T23:48:59.082Z,53.70
2019-03-15T23:51:28.330Z,53.40
2019-03-15T23:53:57.642Z,53.20
2019-03-15T23:56:26.980Z,52.90
2019-03-15T23:58:56.354Z,52.90
